createdAt,value
2018-05-06T00:00:14.868Z,97.27
2018-05-06T00:01:15.451Z,90.03
2018-05-06T00:02:16.022Z,94.70
2018-05-06T00:03:16.593Z,93.60
2018-05-06T00:04:17.163Z,94.36
2018-05-06T00:05:17.733Z,97.75
2018-05-06T00:06:18.308Z,94.51
2018-05-06T00:07:18.874Z,96.41
2018-05-06T00:08:19.445Z,96.41
2018-05-06T00:09:20.016Z,96.32
2018-05-06T00:10:20.587Z,96.32
2018-05-06T00:11:21.159Z,94.41
2018-05-06T00:12:21.731Z,96.17
2018-05-06T00:13:22.304Z,93.32
2018-05-06T00:14:22.877Z,97.32
2018-05-06T00:15:23.452Z,91.88
2018-05-06T00:16:24.019Z,93.12
2018-05-06T00:17:24.591Z,87.07
2018-05-06T00:18:25.160Z,89.69
2018-05-06T00:19:25.738Z,95.08
2018-05-06T00:20:26.303Z,96.70
2018-05-06T00:21:26.875Z,89.60
2018-05-06T00:22:27.460Z,95.46
2018-05-06T00:23:28.032Z,96.98
2018-05-06T00:24:28.602Z,96.22
2018-05-06T00:25:29.172Z,93.41
2018-05-06T00:26:29.743Z,94.89
2018-05-06T00:27:30.313Z,94.79
2018-05-06T00:28:30.882Z,95.22
2018-05-06T00:29:31.455Z,95.03
2018-05-06T00:30:32.025Z,88.40
2018-05-06T00:31:32.595Z,93.79
2018-05-06T00:32:33.167Z,93.79
2018-05-06T00:33:33.772Z,91.13
2018-05-06T00:34:34.319Z,91.50
2018-05-06T00:35:34.890Z,93.98
2018-05-06T00:36:35.462Z,90.08
2018-05-06T00:37:36.033Z,93.98
2018-05-06T00:38:36.604Z,87.31
2018-05-06T00:39:37.176Z,95.70
2018-05-06T00:40:37.747Z,93.65
2018-05-06T00:41:38.319Z,91.84
2018-05-06T00:42:38.901Z,92.74
2018-05-06T00:43:39.472Z,91.98
2018-05-06T00:44:40.042Z,90.93
2018-05-06T00:45:40.615Z,89.60
2018-05-06T00:46:41.183Z,87.26
2018-05-06T00:47:41.753Z,88.93
2018-05-06T00:48:42.324Z,85.16
2018-05-06T00:49:42.896Z,91.74
2018-05-06T00:50:43.468Z,88.88
2018-05-06T00:51:44.043Z,87.21
2018-05-06T00:52:44.611Z,91.13
2018-05-06T00:53:45.181Z,90.45
2018-05-06T00:54:45.755Z,91.88
2018-05-06T00:55:46.325Z,93.55
2018-05-06T00:56:46.898Z,90.12
2018-05-06T00:57:47.465Z,92.22
2018-05-06T00:58:48.036Z,92.79
2018-05-06T00:59:48.606Z,90.94
2018-05-06T01:00:49.176Z,89.26
2018-05-06T01:01:49.747Z,90.98
2018-05-06T01:02:50.317Z,89.46
2018-05-06T01:03:50.889Z,92.03
2018-05-06T01:04:51.473Z,91.31
2018-05-06T01:05:52.042Z,90.17
2018-05-06T01:06:52.613Z,88.89
2018-05-06T01:07:53.183Z,88.12
2018-05-06T01:08:53.754Z,91.55
2018-05-06T01:09:54.322Z,92.03
2018-05-06T01:10:54.894Z,90.98
2018-05-06T01:11:55.462Z,93.93
2018-05-06T01:12:56.031Z,90.03
2018-05-06T01:13:56.612Z,88.41
2018-05-06T01:14:57.173Z,91.94
2018-05-06T01:15:57.742Z,90.12
2018-05-06T01:16:58.311Z,92.55
2018-05-06T01:17:58.883Z,92.27
2018-05-06T01:18:59.456Z,87.79
2018-05-06T01:20:00.028Z,93.37
2018-05-06T01:21:00.606Z,93.08
2018-05-06T01:22:01.173Z,89.36
2018-05-06T01:23:01.745Z,87.50
2018-05-06T01:24:02.315Z,85.88
2018-05-06T01:25:02.885Z,92.98
2018-05-06T01:26:03.458Z,88.84
2018-05-06T01:27:04.025Z,89.40
2018-05-06T01:28:04.600Z,89.54
2018-05-06T01:29:05.165Z,96.27
2018-05-06T01:30:05.734Z,91.17
2018-05-06T01:31:06.304Z,82.98
2018-05-06T01:32:06.875Z,79.36
2018-05-06T01:33:07.455Z,89.75
2018-05-06T01:34:08.026Z,89.32
2018-05-06T01:35:08.599Z,87.70
2018-05-06T01:36:09.170Z,88.18
2018-05-06T01:37:09.736Z,87.51
2018-05-06T01:38:10.306Z,83.61
2018-05-06T01:39:10.878Z,83.13
2018-05-06T01:40:11.446Z,85.99
2018-05-06T01:41:12.016Z,79.13
2018-05-06T01:42:12.585Z,79.36
2018-05-06T01:43:13.154Z,80.60
2018-05-06T01:44:13.724Z,79.27
2018-05-06T01:45:14.295Z,79.80
2018-05-06T01:46:14.866Z,81.46
2018-05-06T01:47:15.437Z,81.17
2018-05-06T01:48:16.020Z,84.60
2018-05-06T01:49:16.591Z,80.98
2018-05-06T01:50:17.157Z,87.27
2018-05-06T01:51:17.727Z,83.70
2018-05-06T01:52:18.295Z,81.65
2018-05-06T01:53:18.865Z,82.89
2018-05-06T01:54:19.434Z,74.44
2018-05-06T01:55:20.004Z,77.87
2018-05-06T01:56:20.574Z,84.03
2018-05-06T01:57:21.143Z,81.17
2018-05-06T01:58:21.712Z,82.84
2018-05-06T01:59:22.282Z,84.36
2018-05-06T02:00:22.865Z,74.84
2018-05-06T02:01:23.442Z,83.98
2018-05-06T02:02:24.025Z,73.03
2018-05-06T02:03:24.594Z,74.65
2018-05-06T02:04:25.164Z,83.89
2018-05-06T02:05:25.733Z,83.80
2018-05-06T02:06:26.303Z,73.41
2018-05-06T02:07:26.887Z,82.08
2018-05-06T02:08:27.456Z,81.66
2018-05-06T02:09:28.026Z,78.56
2018-05-06T02:10:28.596Z,82.70
2018-05-06T02:11:29.177Z,76.75
2018-05-06T02:12:29.747Z,73.99
2018-05-06T02:13:30.322Z,75.23
2018-05-06T02:14:30.890Z,85.36
2018-05-06T02:15:31.461Z,84.84
2018-05-06T02:16:32.030Z,84.04
2018-05-06T02:17:32.602Z,67.80
2018-05-06T02:18:33.170Z,70.18
2018-05-06T02:19:33.742Z,82.93
2018-05-06T02:20:34.312Z,84.36
2018-05-06T02:21:34.899Z,79.13
2018-05-06T02:22:35.464Z,72.08
2018-05-06T02:23:36.033Z,82.37
2018-05-06T02:24:36.605Z,81.03
2018-05-06T02:25:37.191Z,82.08
2018-05-06T02:26:37.757Z,81.23
2018-05-06T02:27:38.329Z,79.60
2018-05-06T02:28:38.896Z,76.33
2018-05-06T02:29:39.467Z,72.94
2018-05-06T02:30:40.037Z,77.45
2018-05-06T02:31:40.608Z,73.93
2018-05-06T02:32:41.178Z,86.69
2018-05-06T02:33:41.762Z,81.74
2018-05-06T02:34:42.330Z,79.51
2018-05-06T02:35:42.910Z,82.27
2018-05-06T02:36:43.475Z,69.60
2018-05-06T02:37:44.055Z,79.38
2018-05-06T02:38:44.623Z,70.08
2018-05-06T02:39:45.195Z,83.70
2018-05-06T02:40:45.764Z,79.66
2018-05-06T02:41:46.335Z,71.19
2018-05-06T02:42:46.915Z,77.76
2018-05-06T02:43:47.483Z,73.57
2018-05-06T02:44:48.051Z,78.99
2018-05-06T02:45:48.631Z,68.71
2018-05-06T02:46:49.202Z,69.42
2018-05-06T02:47:49.772Z,82.14
2018-05-06T02:48:50.341Z,76.90
2018-05-06T02:49:50.912Z,70.47
2018-05-06T02:50:51.480Z,79.47
2018-05-06T02:51:52.049Z,79.28
2018-05-06T02:52:52.628Z,79.47
2018-05-06T02:53:53.199Z,81.76
2018-05-06T02:54:53.768Z,76.90
2018-05-06T02:55:54.338Z,69.10
2018-05-06T02:56:54.908Z,75.60
2018-05-06T02:57:55.479Z,79.22
2018-05-06T02:58:56.048Z,77.89
2018-05-06T02:59:56.618Z,82.70
2018-05-06T03:00:57.189Z,80.61
2018-05-06T03:01:57.757Z,69.67
2018-05-06T03:02:58.326Z,79.32
2018-05-06T03:03:58.897Z,79.41
2018-05-06T03:04:59.465Z,83.47
2018-05-06T03:06:00.034Z,77.66
2018-05-06T03:07:00.610Z,77.76
2018-05-06T03:08:01.181Z,72.27
2018-05-06T03:09:01.750Z,82.51
2018-05-06T03:10:02.320Z,71.76
2018-05-06T03:11:02.895Z,73.03
2018-05-06T03:12:03.472Z,79.13
2018-05-06T03:13:04.039Z,81.56
2018-05-06T03:14:04.608Z,80.08
2018-05-06T03:15:05.181Z,80.42
2018-05-06T03:16:05.753Z,69.42
2018-05-06T03:17:06.321Z,79.22
2018-05-06T03:18:06.901Z,74.94
2018-05-06T03:19:07.490Z,74.52
2018-05-06T03:20:08.038Z,82.51
2018-05-06T03:21:08.605Z,77.28
2018-05-06T03:22:09.185Z,81.09
2018-05-06T03:23:09.755Z,75.67
2018-05-06T03:24:10.323Z,81.33
2018-05-06T03:25:10.894Z,79.62
2018-05-06T03:26:11.460Z,76.20
2018-05-06T03:27:12.030Z,80.10
2018-05-06T03:28:12.598Z,77.85
2018-05-06T03:29:13.168Z,69.57
2018-05-06T03:30:13.735Z,79.38
2018-05-06T03:31:14.305Z,78.90
2018-05-06T03:32:14.872Z,72.81
2018-05-06T03:33:15.441Z,80.52
2018-05-06T03:34:16.009Z,73.28
2018-05-06T03:35:16.579Z,75.85
2018-05-06T03:36:17.154Z,77.28
2018-05-06T03:37:17.728Z,75.62
2018-05-06T03:38:18.298Z,69.95
2018-05-06T03:39:18.869Z,74.84
2018-05-06T03:40:19.440Z,81.18
2018-05-06T03:41:20.017Z,80.80
2018-05-06T03:42:20.584Z,80.29
2018-05-06T03:43:21.152Z,74.10
2018-05-06T03:44:21.722Z,81.81
2018-05-06T03:45:22.301Z,81.62
2018-05-06T03:46:22.871Z,74.14
2018-05-06T03:47:23.441Z,81.71
2018-05-06T03:48:24.026Z,75.53
2018-05-06T03:49:24.607Z,69.29
2018-05-06T03:50:25.175Z,78.52
2018-05-06T03:51:25.744Z,82.80
2018-05-06T03:52:26.312Z,76.90
2018-05-06T03:53:26.882Z,75.19
2018-05-06T03:54:27.453Z,77.56
2018-05-06T03:55:28.025Z,82.42
2018-05-06T03:56:28.596Z,72.94
2018-05-06T03:57:29.168Z,74.40
2018-05-06T03:58:29.738Z,83.80
2018-05-06T03:59:30.307Z,83.03
2018-05-06T04:00:30.967Z,75.26
2018-05-06T04:01:31.467Z,76.59
2018-05-06T04:02:32.036Z,82.60
2018-05-06T04:03:32.618Z,80.50
2018-05-06T04:04:33.188Z,91.13
2018-05-06T04:05:33.759Z,76.12
2018-05-06T04:06:34.329Z,88.65
2018-05-06T04:07:34.899Z,71.07
2018-05-06T04:08:35.469Z,80.18
2018-05-06T04:09:36.039Z,82.99
2018-05-06T04:10:36.611Z,79.47
2018-05-06T04:11:37.183Z,81.23
2018-05-06T04:12:37.752Z,87.56
2018-05-06T04:13:38.321Z,82.99
2018-05-06T04:14:38.891Z,86.32
2018-05-06T04:15:39.461Z,79.57
2018-05-06T04:16:40.030Z,83.18
2018-05-06T04:17:40.600Z,76.46
2018-05-06T04:18:41.171Z,83.28
2018-05-06T04:19:41.741Z,76.84
2018-05-06T04:20:42.314Z,87.41
2018-05-06T04:21:42.884Z,78.78
2018-05-06T04:22:43.459Z,87.60
2018-05-06T04:23:44.030Z,78.46
2018-05-06T04:24:44.601Z,78.56
2018-05-06T04:25:45.171Z,83.13
2018-05-06T04:26:45.821Z,81.26
2018-05-06T04:27:46.316Z,85.13
2018-05-06T04:28:46.889Z,77.74
2018-05-06T04:29:47.459Z,85.74
2018-05-06T04:30:48.031Z,88.31
2018-05-06T04:31:48.603Z,89.07
2018-05-06T04:32:49.174Z,83.93
2018-05-06T04:33:49.746Z,84.17
2018-05-06T04:34:50.321Z,88.18
2018-05-06T04:35:50.892Z,87.70
2018-05-06T04:36:51.463Z,88.27
2018-05-06T04:37:52.035Z,87.70
2018-05-06T04:38:52.607Z,79.59
2018-05-06T04:39:53.180Z,91.46
2018-05-06T04:40:53.752Z,91.55
2018-05-06T04:41:54.327Z,83.12
2018-05-06T04:42:54.899Z,85.41
2018-05-06T04:43:55.478Z,88.55
2018-05-06T04:44:56.051Z,93.60
2018-05-06T04:45:56.625Z,84.83
2018-05-06T04:46:57.209Z,91.98
2018-05-06T04:47:57.779Z,95.79
2018-05-06T04:48:58.353Z,84.83
2018-05-06T04:49:58.924Z,86.16
2018-05-06T04:50:59.498Z,88.69
2018-05-06T04:52:00.075Z,87.45
2018-05-06T04:53:00.644Z,94.98
2018-05-06T04:54:01.231Z,90.41
2018-05-06T04:55:01.810Z,86.02
2018-05-06T04:56:02.388Z,89.74
2018-05-06T04:57:02.960Z,94.84
2018-05-06T04:58:03.535Z,87.26
2018-05-06T04:59:04.108Z,93.74
2018-05-06T05:00:04.681Z,91.74
2018-05-06T05:01:05.255Z,95.65
2018-05-06T05:02:05.840Z,95.32
2018-05-06T05:03:06.412Z,85.88
2018-05-06T05:04:06.988Z,92.46
2018-05-06T05:05:07.561Z,97.75
2018-05-06T05:06:08.133Z,94.41
2018-05-06T05:07:08.706Z,90.64
2018-05-06T05:08:09.288Z,95.41
2018-05-06T05:09:09.853Z,99.23
2018-05-06T05:10:10.428Z,91.88
2018-05-06T05:11:11.003Z,96.03
2018-05-06T05:12:11.577Z,98.90
2018-05-06T05:13:12.151Z,94.07
2018-05-06T05:14:12.725Z,97.80
2018-05-06T05:15:13.298Z,96.84
2018-05-06T05:16:13.870Z,93.12
2018-05-06T05:17:14.446Z,99.52
2018-05-06T05:18:15.019Z,99.99
2018-05-06T05:19:15.597Z,96.70
2018-05-06T05:20:16.165Z,94.17
2018-05-06T05:21:16.738Z,97.13
2018-05-06T05:22:17.321Z,98.99
2018-05-06T05:23:17.887Z,97.27
2018-05-06T05:24:18.462Z,99.18
2018-05-06T05:25:19.037Z,98.52
2018-05-06T05:26:19.611Z,98.03
2018-05-06T05:27:20.186Z,99.47
2018-05-06T05:28:20.761Z,97.37
2018-05-06T05:29:21.334Z,99.47
2018-05-06T05:30:21.908Z,98.71
2018-05-06T05:31:22.482Z,98.90
2018-05-06T05:32:23.056Z,98.90
2018-05-06T05:33:23.631Z,98.71
2018-05-06T05:34:24.207Z,97.37
2018-05-06T05:35:24.778Z,95.84
2018-05-06T05:36:25.365Z,97.94
2018-05-06T05:37:25.949Z,98.52
2018-05-06T05:38:26.526Z,97.56
2018-05-06T05:39:27.099Z,97.71
2018-05-06T05:40:27.673Z,99.14
2018-05-06T05:41:28.248Z,99.52
2018-05-06T05:42:28.833Z,97.42
2018-05-06T05:43:29.410Z,14.60
2018-05-06T05:44:29.983Z,14.60
2018-05-06T05:45:30.558Z,14.60
2018-05-06T05:46:31.132Z,14.60
2018-05-06T05:47:31.725Z,14.60
2018-05-06T05:48:32.283Z,14.60
2018-05-06T05:49:32.857Z,14.60
2018-05-06T05:50:33.441Z,14.60
2018-05-06T05:51:34.007Z,14.60
2018-05-06T05:52:34.584Z,14.60
2018-05-06T05:53:35.160Z,14.60
2018-05-06T05:54:35.741Z,14.60
2018-05-06T05:55:36.321Z,14.60
2018-05-06T05:56:36.890Z,14.60
2018-05-06T05:57:37.464Z,14.60
2018-05-06T05:58:38.049Z,14.60
2018-05-06T05:59:38.624Z,14.60
2018-05-06T06:00:39.201Z,14.60
2018-05-06T06:01:39.773Z,14.60
2018-05-06T06:02:40.348Z,14.60
2018-05-06T06:03:40.925Z,14.60
2018-05-06T06:04:41.500Z,14.60
2018-05-06T06:05:42.074Z,14.60
2018-05-06T06:06:42.650Z,14.60
2018-05-06T06:07:43.225Z,14.60
2018-05-06T06:08:43.800Z,14.60
2018-05-06T06:09:44.454Z,14.60
2018-05-06T06:10:44.950Z,14.60
2018-05-06T06:11:45.527Z,14.60
2018-05-06T06:12:46.101Z,14.60
2018-05-06T06:13:46.677Z,14.60
2018-05-06T06:14:47.265Z,14.60
2018-05-06T06:15:47.839Z,14.60
2018-05-06T06:16:48.425Z,14.60
2018-05-06T06:17:49.011Z,14.60
2018-05-06T06:18:49.597Z,14.60
2018-05-06T06:19:50.182Z,14.60
2018-05-06T06:20:50.757Z,14.60
2018-05-06T06:21:51.333Z,14.60
2018-05-06T06:22:51.918Z,14.60
2018-05-06T06:23:52.493Z,14.60
2018-05-06T06:24:53.069Z,14.60
2018-05-06T06:25:53.642Z,14.60
2018-05-06T06:26:54.231Z,14.60
2018-05-06T06:27:54.808Z,14.60
2018-05-06T06:28:55.383Z,14.60
2018-05-06T06:29:55.958Z,14.60
2018-05-06T06:30:56.535Z,14.60
2018-05-06T06:31:57.109Z,14.60
2018-05-06T06:32:57.764Z,14.60
2018-05-06T06:33:58.260Z,14.60
2018-05-06T06:34:58.837Z,14.60
2018-05-06T06:35:59.414Z,14.60
2018-05-06T06:36:59.990Z,14.60
2018-05-06T06:38:00.566Z,14.60
2018-05-06T06:39:01.143Z,14.60
2018-05-06T06:40:01.720Z,14.60
2018-05-06T06:41:02.296Z,14.60
2018-05-06T06:42:02.875Z,14.60
2018-05-06T06:43:03.448Z,14.60
2018-05-06T06:44:04.028Z,14.60
2018-05-06T06:45:04.601Z,14.60
2018-05-06T06:46:05.182Z,14.60
2018-05-06T06:47:05.766Z,14.60
2018-05-06T06:48:06.346Z,14.60
2018-05-06T06:49:06.918Z,14.60
2018-05-06T06:50:07.495Z,14.60
2018-05-06T06:51:08.072Z,14.60
2018-05-06T06:52:08.650Z,14.60
2018-05-06T06:53:09.239Z,14.60
2018-05-06T06:54:09.827Z,14.60
2018-05-06T06:55:10.414Z,14.60
2018-05-06T06:56:10.993Z,14.60
2018-05-06T06:57:11.572Z,14.60
2018-05-06T06:58:12.148Z,14.60
2018-05-06T06:59:12.724Z,14.60
2018-05-06T07:00:13.304Z,14.60
2018-05-06T07:01:13.894Z,14.60
2018-05-06T07:02:14.478Z,14.60
2018-05-06T07:03:15.068Z,14.60
2018-05-06T07:04:15.645Z,14.60
2018-05-06T07:05:16.221Z,14.60
2018-05-06T07:06:16.799Z,14.60
2018-05-06T07:07:17.378Z,14.60
2018-05-06T07:08:17.957Z,14.60
2018-05-06T07:09:18.536Z,14.60
2018-05-06T07:10:19.118Z,14.60
2018-05-06T07:11:19.765Z,14.60
2018-05-06T07:12:20.272Z,14.60
2018-05-06T07:13:20.848Z,14.60
2018-05-06T07:14:21.427Z,14.60
2018-05-06T07:15:22.016Z,14.60
2018-05-06T07:16:22.596Z,14.60
2018-05-06T07:17:23.173Z,14.60
2018-05-06T07:18:23.751Z,14.60
2018-05-06T07:19:24.426Z,14.60
2018-05-06T07:20:24.907Z,14.60
2018-05-06T07:21:25.487Z,14.60
2018-05-06T07:22:26.063Z,14.60
2018-05-06T07:23:26.640Z,14.60
2018-05-06T07:24:27.220Z,14.60
2018-05-06T07:25:27.798Z,14.60
2018-05-06T07:26:28.375Z,14.60
2018-05-06T07:27:28.952Z,14.60
2018-05-06T07:28:29.533Z,14.60
2018-05-06T07:29:30.108Z,14.60
2018-05-06T07:30:30.685Z,14.60
2018-05-06T07:31:31.276Z,14.60
2018-05-06T07:32:31.857Z,14.60
2018-05-06T07:33:32.437Z,14.60
2018-05-06T07:34:33.012Z,14.60
2018-05-06T07:35:33.591Z,14.60
2018-05-06T07:36:34.168Z,14.60
2018-05-06T07:37:34.744Z,14.60
2018-05-06T07:38:35.327Z,14.60
2018-05-06T07:39:35.912Z,14.60
2018-05-06T07:40:36.491Z,14.60
2018-05-06T07:41:37.118Z,14.60
2018-05-06T07:42:37.655Z,14.60
2018-05-06T07:43:38.246Z,14.60
2018-05-06T07:44:38.826Z,14.60
2018-05-06T07:45:39.404Z,14.60
2018-05-06T07:46:39.992Z,14.60
2018-05-06T07:47:40.569Z,14.60
2018-05-06T07:48:41.148Z,14.60
2018-05-06T07:49:41.728Z,14.60
2018-05-06T07:50:42.304Z,14.60
2018-05-06T07:51:42.885Z,14.60
2018-05-06T07:52:43.468Z,14.60
2018-05-06T07:53:44.044Z,14.60
2018-05-06T07:54:44.632Z,14.60
2018-05-06T07:55:45.208Z,14.60
2018-05-06T07:56:45.785Z,14.60
2018-05-06T07:57:46.363Z,14.60
2018-05-06T07:58:46.957Z,14.60
2018-05-06T07:59:47.522Z,14.60
2018-05-06T08:00:48.099Z,14.60
2018-05-06T08:01:48.696Z,14.60
2018-05-06T08:02:49.268Z,14.60
2018-05-06T08:03:49.845Z,14.60
2018-05-06T08:04:50.425Z,14.60
2018-05-06T08:05:51.005Z,14.60
2018-05-06T08:06:51.581Z,14.60
2018-05-06T08:07:52.159Z,14.60
2018-05-06T08:08:52.737Z,14.60
2018-05-06T08:09:53.315Z,14.60
2018-05-06T08:10:53.961Z,14.60
2018-05-06T08:11:54.470Z,14.60
2018-05-06T08:12:55.049Z,14.60
2018-05-06T08:13:55.639Z,14.60
2018-05-06T08:14:56.215Z,14.60
2018-05-06T08:15:56.792Z,14.60
2018-05-06T08:16:57.371Z,14.60
2018-05-06T08:17:57.950Z,14.60
2018-05-06T08:18:58.532Z,14.60
2018-05-06T08:19:59.111Z,14.60
2018-05-06T08:20:59.689Z,14.60
2018-05-06T08:22:00.269Z,14.60
2018-05-06T08:23:00.846Z,14.60
2018-05-06T08:24:01.430Z,14.60
2018-05-06T08:25:02.003Z,14.60
2018-05-06T08:26:02.581Z,14.60
2018-05-06T08:27:03.158Z,14.60
2018-05-06T08:28:03.738Z,14.60
2018-05-06T08:29:04.320Z,14.60
2018-05-06T08:30:04.896Z,14.60
2018-05-06T08:31:05.500Z,14.60
2018-05-06T08:32:06.062Z,14.60
2018-05-06T08:33:06.652Z,14.60
2018-05-06T08:34:07.230Z,14.60
2018-05-06T08:35:07.809Z,14.60
2018-05-06T08:36:08.388Z,14.60
2018-05-06T08:37:08.967Z,14.60
2018-05-06T08:38:09.547Z,14.60
2018-05-06T08:39:10.137Z,14.60
2018-05-06T08:40:10.716Z,14.60
2018-05-06T08:41:11.297Z,14.60
2018-05-06T08:42:11.875Z,14.60
2018-05-06T08:43:12.454Z,14.60
2018-05-06T08:44:13.035Z,14.60
2018-05-06T08:45:13.614Z,14.60
2018-05-06T08:46:14.195Z,14.60
2018-05-06T08:47:14.786Z,14.60
2018-05-06T08:48:15.372Z,14.60
2018-05-06T08:49:15.952Z,14.60
2018-05-06T08:50:16.540Z,14.60
2018-05-06T08:51:17.129Z,14.60
2018-05-06T08:52:17.709Z,14.60
2018-05-06T08:53:18.288Z,14.60
2018-05-06T08:54:18.868Z,14.60
2018-05-06T08:55:19.447Z,14.60
2018-05-06T08:56:20.037Z,14.60
2018-05-06T08:57:20.618Z,14.60
2018-05-06T08:58:21.198Z,14.60
2018-05-06T08:59:21.787Z,14.60
2018-05-06T09:00:22.369Z,14.60
2018-05-06T09:01:22.949Z,14.60
2018-05-06T09:02:23.540Z,14.60
2018-05-06T09:03:24.121Z,14.60
2018-05-06T09:04:24.699Z,14.60
2018-05-06T09:05:25.277Z,14.60
2018-05-06T09:06:25.857Z,14.60
2018-05-06T09:07:26.437Z,14.60
2018-05-06T09:08:27.017Z,14.60
2018-05-06T09:09:27.596Z,14.60
2018-05-06T09:10:28.186Z,14.60
2018-05-06T09:11:28.767Z,14.60
2018-05-06T09:12:29.345Z,14.60
2018-05-06T09:13:29.967Z,14.60
2018-05-06T09:14:30.514Z,14.60
2018-05-06T09:15:31.095Z,14.60
2018-05-06T09:16:31.677Z,14.60
2018-05-06T09:17:32.258Z,14.60
2018-05-06T09:18:32.839Z,14.60
2018-05-06T09:19:33.426Z,14.60
2018-05-06T09:20:34.012Z,14.60
2018-05-06T09:21:34.603Z,14.60
2018-05-06T09:22:35.184Z,14.60
2018-05-06T09:23:35.768Z,14.60
2018-05-06T09:24:36.352Z,14.60
2018-05-06T09:25:37.018Z,14.60
2018-05-06T09:26:37.520Z,14.60
2018-05-06T09:27:38.101Z,14.60
2018-05-06T09:28:38.681Z,14.60
2018-05-06T09:29:39.261Z,14.60
2018-05-06T09:30:39.842Z,14.60
2018-05-06T09:31:40.423Z,14.60
2018-05-06T09:32:41.004Z,14.60
2018-05-06T09:33:41.585Z,14.60
2018-05-06T09:34:42.176Z,14.60
2018-05-06T09:35:42.755Z,14.60
2018-05-06T09:36:43.346Z,14.60
2018-05-06T09:37:43.962Z,14.60
2018-05-06T09:38:44.507Z,14.60
2018-05-06T09:39:45.091Z,14.60
2018-05-06T09:40:45.669Z,14.60
2018-05-06T09:41:46.249Z,14.60
2018-05-06T09:42:46.833Z,14.60
2018-05-06T09:43:47.436Z,14.60
2018-05-06T09:44:47.999Z,14.60
2018-05-06T09:45:48.580Z,14.60
2018-05-06T09:46:49.161Z,14.60
2018-05-06T09:47:49.807Z,14.60
2018-05-06T09:48:50.377Z,14.60
2018-05-06T09:49:50.960Z,14.60
2018-05-06T09:50:51.538Z,14.60
2018-05-06T09:51:52.119Z,14.60
2018-05-06T09:52:52.699Z,14.60
2018-05-06T09:53:53.333Z,14.60
2018-05-06T09:54:53.861Z,14.60
2018-05-06T09:55:54.442Z,14.60
2018-05-06T09:56:55.032Z,14.60
2018-05-06T09:57:55.613Z,14.60
2018-05-06T09:58:56.197Z,14.60
2018-05-06T09:59:56.785Z,14.60
2018-05-06T10:00:57.367Z,14.60
2018-05-06T10:01:57.946Z,14.60
2018-05-06T10:02:58.529Z,14.60
2018-05-06T10:03:59.110Z,14.60
2018-05-06T10:04:59.691Z,14.60
2018-05-06T10:06:00.273Z,14.60
2018-05-06T10:07:00.853Z,14.60
2018-05-06T10:08:01.435Z,14.60
2018-05-06T10:09:02.017Z,14.60
2018-05-06T10:10:02.596Z,14.60
2018-05-06T10:11:03.178Z,14.60
2018-05-06T10:12:03.768Z,14.60
2018-05-06T10:13:04.347Z,14.60
2018-05-06T10:14:04.928Z,14.60
2018-05-06T10:15:05.509Z,14.60
2018-05-06T10:16:06.090Z,14.60
2018-05-06T10:17:06.672Z,14.60
2018-05-06T10:18:07.252Z,14.60
2018-05-06T10:19:07.832Z,14.60
2018-05-06T10:20:08.507Z,14.60
2018-05-06T10:21:09.008Z,14.60
2018-05-06T10:22:09.591Z,14.60
2018-05-06T10:23:10.220Z,14.60
2018-05-06T10:24:10.806Z,14.60
2018-05-06T10:25:11.384Z,14.60
2018-05-06T10:26:12.001Z,14.60
2018-05-06T10:27:12.554Z,14.60
2018-05-06T10:28:13.212Z,14.60
2018-05-06T10:29:13.717Z,14.60
2018-05-06T10:30:14.297Z,14.60
2018-05-06T10:31:14.878Z,14.60
2018-05-06T10:32:15.458Z,14.60
2018-05-06T10:33:16.041Z,14.60
2018-05-06T10:34:16.625Z,14.60
2018-05-06T10:35:17.205Z,14.60
2018-05-06T10:36:17.787Z,14.60
2018-05-06T10:37:18.361Z,14.60
2018-05-06T10:38:18.944Z,14.60
2018-05-06T10:39:19.530Z,14.60
2018-05-06T10:40:20.107Z,14.60
2018-05-06T10:41:20.687Z,14.60
2018-05-06T10:42:21.273Z,14.60
2018-05-06T10:43:21.851Z,14.60
2018-05-06T10:44:22.471Z,14.60
2018-05-06T10:45:23.012Z,14.60
2018-05-06T10:46:23.591Z,14.60
2018-05-06T10:47:24.173Z,14.60
2018-05-06T10:48:24.754Z,14.60
2018-05-06T10:49:25.396Z,14.60
2018-05-06T10:50:26.009Z,14.60
2018-05-06T10:51:26.508Z,14.60
2018-05-06T10:52:27.100Z,14.60
2018-05-06T10:53:27.689Z,14.60
2018-05-06T10:54:28.270Z,14.60
2018-05-06T10:55:28.882Z,14.60
2018-05-06T10:56:29.444Z,14.60
2018-05-06T10:57:30.025Z,14.60
2018-05-06T10:58:30.606Z,14.60
2018-05-06T10:59:31.188Z,14.60
2018-05-06T11:00:31.768Z,14.60
2018-05-06T11:01:32.361Z,14.60
2018-05-06T11:02:32.941Z,14.60
2018-05-06T11:03:33.534Z,14.60
2018-05-06T11:04:34.115Z,14.60
2018-05-06T11:05:34.699Z,14.60
2018-05-06T11:06:35.276Z,14.60
2018-05-06T11:07:35.866Z,14.60
2018-05-06T11:08:36.452Z,14.60
2018-05-06T11:09:37.041Z,14.60
2018-05-06T11:10:37.625Z,14.60
2018-05-06T11:11:38.204Z,14.60
2018-05-06T11:12:38.787Z,14.60
2018-05-06T11:13:39.368Z,14.60
2018-05-06T11:14:39.949Z,14.60
2018-05-06T11:15:40.533Z,14.60
2018-05-06T11:16:41.115Z,14.60
2018-05-06T11:17:41.695Z,14.60
2018-05-06T11:18:42.276Z,14.60
2018-05-06T11:19:42.857Z,14.60
2018-05-06T11:20:43.439Z,14.60
2018-05-06T11:21:44.021Z,14.60
2018-05-06T11:22:44.604Z,14.60
2018-05-06T11:23:45.183Z,14.60
2018-05-06T11:24:45.764Z,14.60
2018-05-06T11:25:46.351Z,14.60
2018-05-06T11:26:46.932Z,14.60
2018-05-06T11:27:47.521Z,14.60
2018-05-06T11:28:48.102Z,14.60
2018-05-06T11:29:48.685Z,14.60
2018-05-06T11:30:49.265Z,14.60
2018-05-06T11:31:49.850Z,14.60
2018-05-06T11:32:50.439Z,14.60
2018-05-06T11:33:51.023Z,14.60
2018-05-06T11:34:51.605Z,14.60
2018-05-06T11:35:52.187Z,14.60
2018-05-06T11:36:52.769Z,14.60
2018-05-06T11:37:53.361Z,14.60
2018-05-06T11:38:53.945Z,14.60
2018-05-06T11:39:54.526Z,14.60
2018-05-06T11:40:55.168Z,14.60
2018-05-06T11:41:55.692Z,14.60
2018-05-06T11:42:56.274Z,14.60
2018-05-06T11:43:56.854Z,14.60
2018-05-06T11:44:57.435Z,14.60
2018-05-06T11:45:58.018Z,14.60
2018-05-06T11:46:58.600Z,14.60
2018-05-06T11:47:59.202Z,14.60
2018-05-06T11:48:59.762Z,14.60
2018-05-06T11:50:00.345Z,14.60
2018-05-06T11:51:00.937Z,14.60
2018-05-06T11:52:01.518Z,14.60
2018-05-06T11:53:02.099Z,14.60
2018-05-06T11:54:02.681Z,14.60
2018-05-06T11:55:03.276Z,14.60
2018-05-06T11:56:03.859Z,14.60
2018-05-06T11:57:04.446Z,14.60
2018-05-06T11:58:05.021Z,14.60
2018-05-06T11:59:05.603Z,14.60
2018-05-06T12:00:06.186Z,14.60
2018-05-06T12:01:06.768Z,14.60
2018-05-06T12:02:07.348Z,14.60
2018-05-06T12:03:07.930Z,14.60
2018-05-06T12:04:08.512Z,14.60
2018-05-06T12:05:09.105Z,14.60
2018-05-06T12:06:09.687Z,14.60
2018-05-06T12:07:10.270Z,14.60
2018-05-06T12:08:10.852Z,14.60
2018-05-06T12:09:11.433Z,14.60
2018-05-06T12:10:12.015Z,14.60
2018-05-06T12:11:12.597Z,14.60
2018-05-06T12:12:13.180Z,14.60
2018-05-06T12:13:13.762Z,14.60
2018-05-06T12:14:14.343Z,14.60
2018-05-06T12:15:14.924Z,14.60
2018-05-06T12:16:15.506Z,14.60
2018-05-06T12:17:16.089Z,14.60
2018-05-06T12:18:16.670Z,14.60
2018-05-06T12:19:17.253Z,14.60
2018-05-06T12:20:17.835Z,14.60
2018-05-06T12:21:18.417Z,14.60
2018-05-06T12:22:19.004Z,14.60
2018-05-06T12:23:19.581Z,14.60
2018-05-06T12:24:20.161Z,14.60
2018-05-06T12:25:20.742Z,14.60
2018-05-06T12:26:21.328Z,14.60
2018-05-06T12:27:21.917Z,14.60
2018-05-06T12:28:22.581Z,14.60
2018-05-06T12:29:23.090Z,14.60
2018-05-06T12:30:23.671Z,14.60
2018-05-06T12:31:24.252Z,14.60
2018-05-06T12:32:24.835Z,14.60
2018-05-06T12:33:25.420Z,14.60
2018-05-06T12:34:26.012Z,14.60
2018-05-06T12:35:26.594Z,14.60
2018-05-06T12:36:27.177Z,14.60
2018-05-06T12:37:27.761Z,14.60
2018-05-06T12:38:28.355Z,14.60
2018-05-06T12:39:28.935Z,14.60
2018-05-06T12:40:29.519Z,14.60
2018-05-06T12:41:30.100Z,14.60
2018-05-06T12:42:30.689Z,14.60
2018-05-06T12:43:31.365Z,14.60
2018-05-06T12:44:31.847Z,14.60
2018-05-06T12:45:32.431Z,14.60
2018-05-06T12:46:33.013Z,14.60
2018-05-06T12:47:33.595Z,14.60
2018-05-06T12:48:34.176Z,14.60
2018-05-06T12:49:34.825Z,14.60
2018-05-06T12:50:35.343Z,14.60
2018-05-06T12:51:35.924Z,14.60
2018-05-06T12:52:36.517Z,14.60
2018-05-06T12:53:37.110Z,14.60
2018-05-06T12:54:37.694Z,14.60
2018-05-06T12:55:38.280Z,14.60
2018-05-06T12:56:38.857Z,14.60
2018-05-06T12:57:39.444Z,14.60
2018-05-06T12:58:40.033Z,14.60
2018-05-06T12:59:40.615Z,14.60